createdAt,value
2022-11-13T00:01:03.782Z,1.2
2022-11-13T00:06:08.443Z,1.2
2022-11-13T00:11:12.836Z,1.3
2022-11-13T00:16:16.404Z,1.3
2022-11-13T00:21:21.049Z,1.4
2022-11-13T00:26:25.476Z,1.3
2022-11-13T00:31:29.979Z,1.2
2022-11-13T00:36:33.639Z,1.1
2022-11-13T00:41:38.084Z,1
2022-11-13T00:46:42.629Z,1
2022-11-13T00:51:46.272Z,0.9
2022-11-13T00:56:49.752Z,0.9
2022-11-13T01:01:54.315Z,0.9
2022-11-13T01:06:58.916Z,1
2022-11-13T01:12:03.336Z,1
2022-11-13T01:17:06.895Z,1
2022-11-13T01:22:11.537Z,1
2022-11-13T01:27:15.914Z,1.2
2022-11-13T01:32:19.462Z,1.2
2022-11-13T01:37:24.142Z,1.3
2022-11-13T01:42:28.574Z,1.2
2022-11-13T01:47:32.130Z,1.3
2022-11-13T01:52:36.765Z,1.2
2022-11-13T01:57:41.141Z,1.1
2022-11-13T02:02:44.748Z,1.2
2022-11-13T02:07:49.395Z,1.3
2022-11-13T02:12:53.803Z,1.4
2022-11-13T02:17:58.300Z,1.5
2022-11-13T02:23:02.021Z,1.4
2022-11-13T02:28:06.391Z,1.4
2022-11-13T02:33:10.963Z,1.3
2022-11-13T02:38:14.617Z,1.3
2022-11-13T02:43:19.008Z,1.3
2022-11-13T02:48:23.562Z,1.2
2022-11-13T02:53:28.340Z,1.3
2022-11-13T02:58:32.767Z,1.4
2022-11-13T03:03:58.131Z,1.4
2022-11-13T03:08:41.002Z,1.3
2022-11-13T03:13:45.389Z,1.4
2022-11-13T03:18:49.942Z,1.4
2022-11-13T03:23:54.587Z,1.4
2022-11-13T03:28:58.011Z,1.5
2022-11-13T03:34:02.535Z,1.4
2022-11-13T03:39:07.171Z,1.2
2022-11-13T03:44:10.618Z,1
2022-11-13T03:49:15.158Z,0.8
2022-11-13T03:54:19.710Z,0.8
2022-11-13T03:59:23.233Z,0.8
2022-11-13T04:04:27.783Z,0.9
2022-11-13T04:09:32.445Z,1
2022-11-13T04:14:35.825Z,1
2022-11-13T04:19:40.368Z,1.1
2022-11-13T04:24:45.056Z,1.3
2022-11-13T04:29:49.459Z,1.4
2022-11-13T04:34:52.999Z,1.5
2022-11-13T04:39:57.658Z,1.4
2022-11-13T04:45:02.090Z,1.4
2022-11-13T04:50:05.602Z,1.4
2022-11-13T04:55:10.260Z,1.6
2022-11-13T05:00:14.701Z,1.5
2022-11-13T05:05:18.216Z,1.4
2022-11-13T05:10:22.907Z,1.5
2022-11-13T05:15:26.344Z,1.7
2022-11-13T05:20:30.859Z,1.6
2022-11-13T05:25:35.542Z,1.5
2022-11-13T05:30:38.955Z,1.4
2022-11-13T05:35:43.498Z,1.3
2022-11-13T05:40:48.117Z,1.2
2022-11-13T05:45:51.573Z,1.3
2022-11-13T05:50:56.103Z,1.2
2022-11-13T05:56:00.730Z,1.1
2022-11-13T06:01:04.193Z,1.4
2022-11-13T06:06:08.719Z,2
2022-11-13T06:11:13.392Z,2.2
2022-11-13T06:16:17.818Z,2
2022-11-13T06:21:21.321Z,2.3
2022-11-13T06:26:25.993Z,2.7
2022-11-13T06:31:30.400Z,2.9
2022-11-13T06:36:33.963Z,3.3
2022-11-13T06:41:38.597Z,3.3
2022-11-13T06:46:43.049Z,3.2
2022-11-13T06:51:46.555Z,3.5
2022-11-13T06:56:51.214Z,4.2
2022-11-13T07:01:55.646Z,4.9
2022-11-13T07:06:59.329Z,5.4
2022-11-13T07:12:03.752Z,6
2022-11-13T07:17:10.109Z,6.3
2022-11-13T07:22:12.819Z,6.1
2022-11-13T07:27:16.462Z,5.8
2022-11-13T07:32:20.894Z,5.6
2022-11-13T07:37:25.434Z,5.4
2022-11-13T07:42:29.070Z,5.3
2022-11-13T07:47:33.477Z,5.1
2022-11-13T07:52:38.016Z,5.4
2022-11-13T07:57:41.677Z,5.8
2022-11-13T08:02:46.154Z,6
2022-11-13T08:07:51.480Z,6.2
2022-11-13T08:12:54.316Z,6
2022-11-13T08:17:58.748Z,6
2022-11-13T08:23:03.257Z,5.6
2022-11-13T08:28:12.795Z,6.2
2022-11-13T08:33:11.357Z,6.2
2022-11-13T08:38:15.894Z,6.7
2022-11-13T08:43:20.508Z,6.9
2022-11-13T08:48:23.959Z,7
2022-11-13T08:53:28.517Z,7
2022-11-13T08:58:33.184Z,7
2022-11-13T09:03:36.666Z,6.9
2022-11-13T09:08:41.117Z,6.3
2022-11-13T09:13:50.638Z,6.4
2022-11-13T09:18:49.217Z,6.5
2022-11-13T09:23:53.749Z,6.4
2022-11-13T09:28:57.432Z,6.7
2022-11-13T09:34:01.846Z,6.9
2022-11-13T09:39:06.366Z,6.9
2022-11-13T09:44:10.053Z,6.9
2022-11-13T09:49:14.464Z,7
2022-11-13T09:54:18.992Z,7.6
2022-11-13T09:59:22.659Z,8
2022-11-13T10:04:27.097Z,8.1
2022-11-13T10:09:31.601Z,8.6
2022-11-13T10:14:36.262Z,8.6
2022-11-13T10:19:39.674Z,8.6
2022-11-13T10:24:44.239Z,8.8
2022-11-13T10:29:49.385Z,8.6
2022-11-13T10:34:52.346Z,8.7
2022-11-13T10:39:56.888Z,9.1
2022-11-13T10:45:01.509Z,9.1
2022-11-13T10:50:04.975Z,9.2
2022-11-13T10:55:09.492Z,9.5
2022-11-13T11:00:14.141Z,9.6
2022-11-13T11:05:17.555Z,9.7
2022-11-13T11:10:22.137Z,10
2022-11-13T11:15:26.783Z,9.9
2022-11-13T11:20:31.179Z,9.8
2022-11-13T11:25:34.756Z,9.6
2022-11-13T11:30:39.424Z,10.1
2022-11-13T11:35:43.844Z,9.6
2022-11-13T11:40:47.392Z,9.9
2022-11-13T11:45:52.054Z,10.2
2022-11-13T11:50:56.447Z,10
2022-11-13T11:56:00.005Z,10.1
2022-11-13T12:01:04.566Z,10.1
2022-11-13T12:06:09.095Z,10.1
2022-11-13T12:11:12.627Z,10.1
2022-11-13T12:16:22.338Z,10.7
2022-11-13T12:21:21.734Z,10.6
2022-11-13T12:26:26.285Z,10.4
2022-11-13T12:31:29.939Z,10.6
2022-11-13T12:36:34.387Z,11.1
2022-11-13T12:41:38.920Z,10.5
2022-11-13T12:46:42.545Z,10.8
2022-11-13T12:51:46.979Z,11.5
2022-11-13T12:56:51.515Z,11.7
2022-11-13T13:01:55.234Z,11.6
2022-11-13T13:06:59.649Z,11.8
2022-11-13T13:12:04.156Z,11.6
2022-11-13T13:17:07.802Z,11.4
2022-11-13T13:22:12.246Z,11.5
2022-11-13T13:27:16.785Z,11.4
2022-11-13T13:32:21.517Z,11.1
2022-11-13T13:37:24.865Z,11.5
2022-11-13T13:42:28.440Z,11.3
2022-11-13T13:47:33.087Z,11.9
2022-11-13T13:52:37.505Z,13
2022-11-13T13:57:41.048Z,13.5
2022-11-13T14:02:45.700Z,13.5
2022-11-13T14:07:50.133Z,13.3
2022-11-13T14:12:54.720Z,12.8
2022-11-13T14:17:58.320Z,12.7
2022-11-13T14:23:02.769Z,12.8
2022-11-13T14:28:07.281Z,11.7
2022-11-13T14:33:10.962Z,11.3
2022-11-13T14:38:15.358Z,11.1
2022-11-13T14:43:19.894Z,11.8
2022-11-13T14:48:23.653Z,11.9
2022-11-13T14:53:28.273Z,11.7
2022-11-13T14:58:32.551Z,11.4
2022-11-13T15:03:36.210Z,9.8
2022-11-13T15:08:40.626Z,8.6
2022-11-13T15:13:45.203Z,8.9
2022-11-13T15:18:49.790Z,8.5
2022-11-13T15:23:53.212Z,8
2022-11-13T15:28:57.778Z,7.8
2022-11-13T15:34:02.415Z,7.8
2022-11-13T15:39:06.602Z,7.7
2022-11-13T15:44:10.381Z,7.7
2022-11-13T15:49:15.014Z,7.8
2022-11-13T15:54:18.482Z,7.5
2022-11-13T15:59:23.002Z,6.9
2022-11-13T16:04:44.014Z,6.4
2022-11-13T16:09:31.081Z,6.2
2022-11-13T16:14:35.613Z,5.6
2022-11-13T16:19:40.194Z,5.2
2022-11-13T16:24:44.704Z,5.3
2022-11-13T16:29:48.219Z,5.5
2022-11-13T16:34:52.876Z,5.4
2022-11-13T16:39:57.328Z,5.1
2022-11-13T16:45:00.852Z,5.1
2022-11-13T16:50:05.559Z,5.2
2022-11-13T16:55:09.906Z,5.3
2022-11-13T17:00:13.475Z,5.2
2022-11-13T17:05:18.098Z,5.3
2022-11-13T17:10:31.736Z,5.4
2022-11-13T17:15:26.105Z,5.4
2022-11-13T17:20:30.731Z,5.4
2022-11-13T17:25:35.133Z,5.3
2022-11-13T17:30:39.706Z,5.3
2022-11-13T17:35:43.239Z,5.1
2022-11-13T17:40:47.803Z,5
2022-11-13T17:45:52.281Z,5
2022-11-13T17:50:55.979Z,5
2022-11-13T17:55:59.444Z,5
2022-11-13T18:01:03.956Z,5.1
2022-11-13T18:06:08.607Z,5.4
2022-11-13T18:11:12.994Z,5.5
2022-11-13T18:16:16.566Z,5.3
2022-11-13T18:21:23.410Z,4.8
2022-11-13T18:26:25.614Z,4.5
2022-11-13T18:31:29.178Z,4.5
2022-11-13T18:36:33.832Z,4.6
2022-11-13T18:41:38.244Z,4.5
2022-11-13T18:46:41.833Z,4.5
2022-11-13T18:51:46.466Z,4.5
2022-11-13T18:56:50.885Z,4.5
2022-11-13T19:01:54.536Z,4.6
2022-11-13T19:06:59.164Z,4.5
2022-11-13T19:12:03.494Z,4.4
2022-11-13T19:17:07.990Z,4.4
2022-11-13T19:22:11.682Z,4.9
2022-11-13T19:27:16.072Z,5.1
2022-11-13T19:32:20.609Z,5.3
2022-11-13T19:37:24.288Z,5
2022-11-13T19:42:28.740Z,4.6
2022-11-13T19:47:33.256Z,5.1
2022-11-13T19:52:36.901Z,5.3
2022-11-13T19:57:45.105Z,5.1
2022-11-13T20:02:46.024Z,4.9
2022-11-13T20:07:49.560Z,4.6
2022-11-13T20:12:53.953Z,4
2022-11-13T20:17:58.494Z,3.7
2022-11-13T20:23:03.121Z,3.3
2022-11-13T20:28:06.591Z,3.2
2022-11-13T20:33:11.132Z,3.1
2022-11-13T20:38:15.738Z,4.7
2022-11-13T20:43:19.224Z,5.6
2022-11-13T20:48:23.716Z,6.3
2022-11-13T20:53:28.368Z,6.9
2022-11-13T20:58:32.152Z,7.1
2022-11-13T21:03:40.209Z,6.3
2022-11-13T21:08:40.990Z,5.8
2022-11-13T21:13:44.419Z,5.6
2022-11-13T21:18:48.974Z,5.5
2022-11-13T21:23:53.629Z,4.8
2022-11-13T21:28:58.037Z,4.2
2022-11-13T21:34:01.554Z,4.3
2022-11-13T21:39:06.324Z,5.4
2022-11-13T21:44:10.649Z,6
2022-11-13T21:49:14.228Z,6.2
2022-11-13T21:54:18.840Z,6.2
2022-11-13T21:59:23.237Z,6
2022-11-13T22:04:26.837Z,5.9
2022-11-13T22:09:31.455Z,5.8
2022-11-13T22:14:34.909Z,5.8
2022-11-13T22:19:39.504Z,5.8
2022-11-13T22:24:44.151Z,6
2022-11-13T22:29:47.544Z,6
2022-11-13T22:34:52.084Z,5.9
2022-11-13T22:39:56.741Z,6
2022-11-13T22:45:00.181Z,5.8
2022-11-13T22:50:04.753Z,5.8
2022-11-13T22:55:09.377Z,5.7
2022-11-13T23:00:12.762Z,5.8
2022-11-13T23:05:17.321Z,5.8
2022-11-13T23:10:21.933Z,6
2022-11-13T23:15:26.398Z,5.9
2022-11-13T23:20:29.906Z,5.9
2022-11-13T23:25:34.561Z,6
2022-11-13T23:30:38.996Z,6
2022-11-13T23:35:42.545Z,6
2022-11-13T23:40:47.181Z,5.7
2022-11-13T23:45:51.622Z,5.4
2022-11-13T23:50:55.196Z,5.2
2022-11-13T23:55:59.847Z,4.9
